createdAt,value
2023-05-14T00:08:52.710Z,101731.00
2023-05-14T00:18:54.049Z,101716.03
2023-05-14T00:28:55.309Z,101725.88
2023-05-14T00:38:56.593Z,101717.03
2023-05-14T00:48:57.824Z,101701.88
2023-05-14T00:58:59.065Z,101692.44
2023-05-14T01:09:00.282Z,101702.03
2023-05-14T01:19:01.611Z,101696.78
2023-05-14T01:29:02.870Z,101689.75
2023-05-14T01:39:04.096Z,101677.31
2023-05-14T01:49:05.379Z,101674.16
2023-05-14T01:59:07.746Z,101688.84
2023-05-14T02:09:08.990Z,101667.16
2023-05-14T02:19:10.301Z,101670.09
2023-05-14T02:29:11.619Z,101665.66
2023-05-14T02:39:12.902Z,101658.13
2023-05-14T02:49:14.168Z,101662.94
2023-05-14T02:59:15.383Z,101671.25
2023-05-14T03:09:17.066Z,101661.63
2023-05-14T03:19:18.354Z,101654.75
2023-05-14T03:29:19.638Z,101643.94
2023-05-14T03:39:20.898Z,101638.56
2023-05-14T03:49:22.136Z,101643.34
2023-05-14T03:59:23.382Z,101632.19
2023-05-14T04:09:24.620Z,101632.28
2023-05-14T04:19:26.293Z,101627.66
2023-05-14T04:29:27.539Z,101639.22
2023-05-14T04:39:28.795Z,101632.41
2023-05-14T04:49:30.060Z,101632.41
2023-05-14T04:59:31.321Z,101624.81
2023-05-14T05:09:32.580Z,101638.41
2023-05-14T05:19:43.211Z,101643.75
2023-05-14T05:29:45.246Z,101661.78
2023-05-14T05:39:46.476Z,101656.56
2023-05-14T05:49:47.710Z,101655.22
2023-05-14T05:59:48.958Z,101666.34
2023-05-14T06:09:50.252Z,101674.16
2023-05-14T06:19:52.791Z,101675.66
2023-05-14T06:29:54.060Z,101683.91
2023-05-14T06:39:57.676Z,101681.44
2023-05-14T06:49:59.140Z,101681.38
2023-05-14T07:00:02.828Z,101686.81
2023-05-14T07:10:04.648Z,101664.28
2023-05-14T07:20:05.898Z,101666.53
2023-05-14T07:30:07.155Z,101670.75
2023-05-14T07:40:08.463Z,101671.31
2023-05-14T07:50:09.825Z,101674.63
2023-05-14T08:00:14.881Z,101667.47
2023-05-14T08:10:24.077Z,101664.09
2023-05-14T08:20:33.140Z,101663.84
2023-05-14T08:30:34.691Z,101664.69
2023-05-14T08:40:37.482Z,101653.53
2023-05-14T08:50:38.733Z,101654.44
2023-05-14T09:00:41.449Z,101635.19
2023-05-14T09:10:51.964Z,101622.88
2023-05-14T09:20:59.407Z,101613.34
2023-05-14T09:31:07.427Z,101614.97
2023-05-14T09:51:37.943Z,101602.81
2023-05-14T10:01:39.284Z,101599.13
2023-05-14T10:11:40.588Z,101599.19
2023-05-14T10:32:03.908Z,101575.44
2023-05-14T10:42:05.169Z,101577.09
2023-05-14T10:52:14.201Z,101571.94
2023-05-14T11:02:22.464Z,101562.22
2023-05-14T11:12:30.410Z,101552.50
2023-05-14T11:22:38.482Z,101541.91
2023-05-14T11:32:46.476Z,101536.59
2023-05-14T11:42:54.473Z,101528.63
2023-05-14T11:53:02.471Z,101508.56
2023-05-14T12:03:10.475Z,101511.94
2023-05-14T12:13:20.987Z,101497.72
2023-05-14T12:33:48.992Z,101481.16
2023-05-14T12:43:50.237Z,101466.41
2023-05-14T12:53:51.489Z,101464.38
2023-05-14T13:04:00.484Z,101447.72
2023-05-14T13:14:08.547Z,101446.63
2023-05-14T13:24:16.459Z,101435.31
2023-05-14T13:34:25.502Z,101434.28
2023-05-14T13:44:33.571Z,101423.53
2023-05-14T13:54:41.468Z,101428.66
2023-05-14T14:04:49.557Z,101410.09
2023-05-14T14:14:58.463Z,101407.75
2023-05-14T14:25:06.434Z,101391.97
2023-05-14T14:35:14.467Z,101387.63
2023-05-14T14:45:25.897Z,101391.09
2023-05-14T14:55:33.435Z,101384.34
2023-05-14T15:05:41.507Z,101387.88
2023-05-14T15:15:49.482Z,101375.00
2023-05-14T15:25:57.512Z,101373.81
2023-05-14T15:36:06.278Z,101361.44
2023-05-14T15:46:15.116Z,101361.50
2023-05-14T15:56:22.481Z,101358.72
2023-05-14T16:06:30.486Z,101352.63
2023-05-14T16:16:38.575Z,101347.22
2023-05-14T16:26:46.480Z,101352.41
2023-05-14T16:36:54.523Z,101348.06
2023-05-14T16:47:02.504Z,101358.53
2023-05-14T16:57:10.522Z,101362.88
2023-05-14T17:07:18.491Z,101351.53
2023-05-14T17:27:48.614Z,101367.41
2023-05-14T17:37:49.894Z,101378.88
2023-05-14T17:47:51.601Z,101384.13
2023-05-14T18:08:21.914Z,101391.38
2023-05-14T18:18:23.550Z,101411.38
2023-05-14T18:28:26.651Z,101409.50
2023-05-14T18:38:34.511Z,101413.00
2023-05-14T18:48:42.535Z,101419.47
2023-05-14T18:58:43.818Z,101423.91
2023-05-14T19:08:45.072Z,101420.63
2023-05-14T19:18:46.360Z,101426.81
2023-05-14T19:28:47.597Z,101426.88
2023-05-14T19:38:48.915Z,101439.13
2023-05-14T19:48:50.141Z,101428.81
2023-05-14T19:58:51.343Z,101436.00
2023-05-14T20:08:52.598Z,101429.72
2023-05-14T20:18:53.965Z,101438.75
2023-05-14T20:28:55.252Z,101440.44
2023-05-14T20:38:56.513Z,101436.25
2023-05-14T20:48:57.766Z,101442.38
2023-05-14T20:58:59.066Z,101444.34
2023-05-14T21:09:00.373Z,101438.16
2023-05-14T21:19:01.669Z,101433.03
2023-05-14T21:29:02.990Z,101434.84
2023-05-14T21:39:04.244Z,101420.13
2023-05-14T21:49:05.522Z,101413.09
2023-05-14T21:59:06.801Z,101412.19
2023-05-14T22:09:08.058Z,101408.03
2023-05-14T22:19:09.381Z,101405.34
2023-05-14T22:29:10.627Z,101408.31
2023-05-14T22:39:13.474Z,101396.00
2023-05-14T22:49:15.012Z,101391.13
2023-05-14T22:59:16.273Z,101371.84
2023-05-14T23:09:17.558Z,101371.31
2023-05-14T23:19:18.933Z,101365.13
2023-05-14T23:29:20.266Z,101360.75
2023-05-14T23:39:21.518Z,101359.78
2023-05-14T23:49:22.793Z,101362.69
2023-05-14T23:59:24.057Z,101357.63
